createdAt,value
2023-07-06T00:00:11.944Z,41.90
2023-07-06T00:01:11.951Z,41.90
2023-07-06T00:02:11.960Z,41.93
2023-07-06T00:03:11.994Z,41.94
2023-07-06T00:04:12.017Z,41.96
2023-07-06T00:05:11.999Z,41.92
2023-07-06T00:06:11.989Z,41.89
2023-07-06T00:07:12.018Z,41.89
2023-07-06T00:08:11.981Z,41.91
2023-07-06T00:09:11.990Z,41.91
2023-07-06T00:10:12.022Z,41.85
2023-07-06T00:11:12.056Z,41.88
2023-07-06T00:12:12.045Z,41.86
2023-07-06T00:13:12.067Z,41.87
2023-07-06T00:14:12.036Z,41.88
2023-07-06T00:15:12.047Z,41.82
2023-07-06T00:16:12.085Z,41.87
2023-07-06T00:17:12.092Z,41.85
2023-07-06T00:18:12.051Z,41.85
2023-07-06T00:19:12.039Z,41.87
2023-07-06T00:20:12.065Z,41.83
2023-07-06T00:21:12.084Z,41.84
2023-07-06T00:22:12.104Z,41.79
2023-07-06T00:23:12.148Z,41.83
2023-07-06T00:24:12.120Z,41.84
2023-07-06T00:25:12.111Z,41.80
2023-07-06T00:26:12.121Z,41.85
2023-07-06T00:27:12.166Z,41.81
2023-07-06T00:28:12.134Z,41.85
2023-07-06T00:29:12.142Z,41.83
2023-07-06T00:30:12.138Z,41.84
2023-07-06T00:31:12.230Z,41.83
2023-07-06T00:32:12.164Z,41.83
2023-07-06T00:33:12.186Z,41.85
2023-07-06T00:34:12.184Z,41.80
2023-07-06T00:35:12.197Z,41.77
2023-07-06T00:36:12.278Z,41.80
2023-07-06T00:37:12.255Z,41.76
2023-07-06T00:38:12.272Z,41.81
2023-07-06T00:39:12.272Z,41.81
2023-07-06T00:40:12.235Z,41.75
2023-07-06T00:41:12.237Z,41.77
2023-07-06T00:42:12.300Z,41.74
2023-07-06T00:43:12.308Z,41.77
2023-07-06T00:44:12.341Z,41.76
2023-07-06T00:45:12.321Z,41.74
2023-07-06T00:46:12.375Z,41.71
2023-07-06T00:47:12.356Z,41.74
2023-07-06T00:49:27.797Z,41.77
2023-07-06T00:50:27.706Z,41.78
2023-07-06T00:51:27.707Z,41.77
2023-07-06T00:52:27.653Z,41.74
2023-07-06T00:53:27.657Z,41.72
2023-07-06T00:54:27.634Z,41.72
2023-07-06T00:55:27.620Z,41.71
2023-07-06T00:56:27.633Z,41.66
2023-07-06T00:57:27.633Z,41.72
2023-07-06T00:58:27.591Z,41.68
2023-07-06T00:59:27.566Z,41.69
2023-07-06T01:00:27.581Z,41.67
2023-07-06T01:01:27.571Z,41.64
2023-07-06T01:02:27.576Z,41.63
2023-07-06T01:03:27.656Z,41.63
2023-07-06T01:04:27.559Z,41.61
2023-07-06T01:05:27.549Z,41.65
2023-07-06T01:06:27.509Z,41.66
2023-07-06T01:07:27.533Z,41.62
2023-07-06T01:08:27.495Z,41.62
2023-07-06T01:09:27.480Z,41.60
2023-07-06T01:10:27.497Z,41.63
2023-07-06T01:11:27.449Z,41.58
2023-07-06T01:12:27.436Z,41.61
2023-07-06T01:13:27.460Z,41.62
2023-07-06T01:14:27.398Z,41.60
2023-07-06T01:15:27.424Z,41.60
2023-07-06T01:16:27.377Z,41.60
2023-07-06T01:17:27.429Z,41.58
2023-07-06T01:18:27.352Z,41.58
2023-07-06T01:19:27.326Z,41.61
2023-07-06T01:20:27.456Z,41.54
2023-07-06T01:21:27.313Z,41.53
2023-07-06T01:22:27.304Z,41.52
2023-07-06T01:23:27.302Z,41.53
2023-07-06T01:24:27.303Z,41.53
2023-07-06T01:25:27.271Z,41.54
2023-07-06T01:26:27.277Z,41.53
2023-07-06T01:27:27.359Z,41.54
2023-07-06T01:28:27.381Z,41.54
2023-07-06T01:29:27.495Z,41.49
2023-07-06T01:30:27.501Z,41.54
2023-07-06T01:31:27.627Z,41.54
2023-07-06T01:32:27.641Z,41.47
2023-07-06T01:33:27.638Z,41.46
2023-07-06T01:34:27.730Z,41.52
2023-07-06T01:35:27.757Z,41.46
2023-07-06T01:36:27.791Z,41.47
2023-07-06T01:37:27.852Z,41.47
2023-07-06T01:38:27.888Z,41.45
2023-07-06T01:39:27.944Z,41.43
2023-07-06T01:40:27.994Z,41.47
2023-07-06T01:41:28.075Z,41.46
2023-07-06T01:42:28.083Z,41.49
2023-07-06T01:43:28.134Z,41.46
2023-07-06T01:44:28.208Z,41.41
2023-07-06T01:45:28.274Z,41.45
2023-07-06T01:46:28.327Z,41.47
2023-07-06T01:47:28.410Z,41.42
2023-07-06T01:48:28.427Z,41.41
2023-07-06T01:49:28.449Z,41.35
2023-07-06T01:50:28.524Z,41.37
2023-07-06T01:51:28.569Z,41.39
2023-07-06T01:52:30.008Z,41.42
2023-07-06T01:53:28.647Z,41.41
2023-07-06T01:54:28.705Z,41.38
2023-07-06T01:55:28.807Z,41.35
2023-07-06T01:56:28.828Z,41.36
2023-07-06T01:57:28.885Z,41.38
2023-07-06T01:58:28.940Z,41.33
2023-07-06T01:59:28.996Z,41.37
2023-07-06T02:00:29.075Z,41.30
2023-07-06T02:01:29.203Z,41.30
2023-07-06T02:02:29.280Z,41.34
2023-07-06T02:03:29.176Z,41.33
2023-07-06T02:04:29.369Z,41.30
2023-07-06T02:05:29.394Z,41.31
2023-07-06T02:06:29.343Z,41.30
2023-07-06T02:07:29.419Z,41.30
2023-07-06T02:08:29.458Z,41.23
2023-07-06T02:09:29.507Z,41.30
2023-07-06T02:10:29.555Z,41.30
2023-07-06T02:11:29.627Z,41.26
2023-07-06T02:12:29.711Z,41.26
2023-07-06T02:13:29.811Z,41.24
2023-07-06T02:14:29.787Z,41.24
2023-07-06T02:15:29.821Z,41.23
2023-07-06T02:16:29.947Z,41.23
2023-07-06T02:17:30.015Z,41.26
2023-07-06T02:18:30.024Z,41.22
2023-07-06T02:19:30.045Z,41.24
2023-07-06T02:20:30.128Z,41.20
2023-07-06T02:21:30.161Z,41.20
2023-07-06T02:22:30.214Z,41.20
2023-07-06T02:23:30.255Z,41.20
2023-07-06T02:24:30.311Z,41.22
2023-07-06T02:25:30.364Z,41.19
2023-07-06T02:26:30.392Z,41.16
2023-07-06T02:27:30.470Z,41.19
2023-07-06T02:28:30.525Z,41.19
2023-07-06T02:29:30.599Z,41.14
2023-07-06T02:30:30.654Z,41.16
2023-07-06T02:31:30.670Z,41.23
2023-07-06T02:32:30.757Z,41.16
2023-07-06T02:33:30.787Z,41.19
2023-07-06T02:34:30.853Z,41.12
2023-07-06T02:35:30.925Z,41.12
2023-07-06T02:36:31.061Z,41.12
2023-07-06T02:37:31.001Z,41.12
2023-07-06T02:38:31.061Z,41.11
2023-07-06T02:39:31.100Z,41.08
2023-07-06T02:40:31.186Z,41.07
2023-07-06T02:41:31.228Z,41.12
2023-07-06T02:42:31.300Z,41.06
2023-07-06T02:43:31.348Z,41.07
2023-07-06T02:44:31.369Z,41.08
2023-07-06T02:45:31.409Z,41.04
2023-07-06T02:46:31.565Z,41.03
2023-07-06T02:47:31.536Z,41.06
2023-07-06T02:48:31.607Z,41.03
2023-07-06T02:49:31.674Z,41.01
2023-07-06T02:50:31.728Z,41.00
2023-07-06T02:51:31.773Z,41.01
2023-07-06T02:52:31.802Z,41.06
2023-07-06T02:53:31.883Z,41.00
2023-07-06T02:54:31.906Z,40.98
2023-07-06T02:55:31.934Z,40.93
2023-07-06T02:56:32.029Z,41.01
2023-07-06T02:57:32.087Z,40.95
2023-07-06T02:58:32.097Z,40.95
2023-07-06T02:59:32.210Z,40.95
2023-07-06T03:00:32.201Z,40.99
2023-07-06T03:01:32.284Z,40.99
2023-07-06T03:02:32.396Z,40.97
2023-07-06T03:03:32.370Z,40.93
2023-07-06T03:04:32.432Z,40.93
2023-07-06T03:05:32.514Z,40.95
2023-07-06T03:06:32.503Z,40.93
2023-07-06T03:07:32.544Z,40.89
2023-07-06T03:08:32.589Z,40.89
2023-07-06T03:09:32.635Z,40.89
2023-07-06T03:10:32.676Z,40.88
2023-07-06T03:11:32.718Z,40.88
2023-07-06T03:12:32.783Z,40.89
2023-07-06T03:13:32.914Z,40.91
2023-07-06T03:14:32.876Z,40.86
2023-07-06T03:15:32.926Z,40.87
2023-07-06T03:16:32.998Z,40.89
2023-07-06T03:17:33.053Z,40.82
2023-07-06T03:18:33.118Z,40.83
2023-07-06T03:19:33.111Z,40.88
2023-07-06T03:20:33.130Z,40.84
2023-07-06T03:21:33.180Z,40.79
2023-07-06T03:22:33.263Z,40.77
2023-07-06T03:23:33.340Z,40.79
2023-07-06T03:24:34.700Z,40.79
2023-07-06T03:25:33.422Z,40.78
2023-07-06T03:26:33.491Z,40.80
2023-07-06T03:27:33.519Z,40.80
2023-07-06T03:28:33.564Z,40.79
2023-07-06T03:29:33.620Z,40.80
2023-07-06T03:30:33.646Z,40.77
2023-07-06T03:31:33.930Z,40.73
2023-07-06T03:32:33.863Z,40.74
2023-07-06T03:33:33.846Z,40.73
2023-07-06T03:34:33.855Z,40.72
2023-07-06T03:35:34.008Z,40.70
2023-07-06T03:36:33.975Z,40.79
2023-07-06T03:37:34.027Z,40.76
2023-07-06T03:38:34.066Z,40.67
2023-07-06T03:39:34.128Z,40.69
2023-07-06T03:40:34.178Z,40.70
2023-07-06T03:41:34.174Z,40.68
2023-07-06T03:42:34.209Z,40.70
2023-07-06T03:43:34.269Z,40.64
2023-07-06T03:44:34.249Z,40.70
2023-07-06T03:45:34.358Z,40.66
2023-07-06T03:46:34.351Z,40.68
2023-07-06T03:47:34.357Z,40.64
2023-07-06T03:48:34.328Z,40.61
2023-07-06T03:49:34.386Z,40.61
2023-07-06T03:50:34.398Z,40.68
2023-07-06T03:51:34.465Z,40.62
2023-07-06T03:52:34.488Z,40.61
2023-07-06T03:53:34.533Z,40.62
2023-07-06T03:54:34.567Z,40.61
2023-07-06T03:55:34.634Z,40.65
2023-07-06T03:56:34.661Z,40.60
2023-07-06T03:57:34.689Z,40.60
2023-07-06T03:58:34.710Z,40.57
2023-07-06T03:59:35.532Z,40.56
2023-07-06T04:00:34.792Z,40.55
2023-07-06T04:01:34.862Z,40.57
2023-07-06T04:02:34.935Z,40.61
2023-07-06T04:03:35.019Z,40.52
2023-07-06T04:04:34.960Z,40.53
2023-07-06T04:05:35.007Z,40.56
2023-07-06T04:06:35.037Z,40.53
2023-07-06T04:07:35.068Z,40.52
2023-07-06T04:08:35.087Z,40.53
2023-07-06T04:09:35.137Z,40.49
2023-07-06T04:10:35.231Z,40.52
2023-07-06T04:11:35.224Z,40.47
2023-07-06T04:12:35.264Z,40.47
2023-07-06T04:13:35.392Z,40.52
2023-07-06T04:14:35.333Z,40.47
2023-07-06T04:15:35.379Z,40.47
2023-07-06T04:16:35.516Z,40.47
2023-07-06T04:17:35.488Z,40.46
2023-07-06T04:18:35.475Z,40.47
2023-07-06T04:19:35.527Z,40.46
2023-07-06T04:20:35.777Z,40.43
2023-07-06T04:21:35.540Z,40.42
2023-07-06T04:22:35.612Z,40.49
2023-07-06T04:23:35.630Z,40.42
2023-07-06T04:24:35.612Z,40.41
2023-07-06T04:25:35.666Z,40.41
2023-07-06T04:26:35.663Z,40.37
2023-07-06T04:27:35.694Z,40.35
2023-07-06T04:28:35.731Z,40.35
2023-07-06T04:29:35.768Z,40.39
2023-07-06T04:30:35.757Z,40.33
2023-07-06T04:31:35.829Z,40.39
2023-07-06T04:32:35.820Z,40.39
2023-07-06T04:33:35.797Z,40.41
2023-07-06T04:34:35.796Z,40.31
2023-07-06T04:35:37.582Z,40.35
2023-07-06T04:36:35.822Z,40.33
2023-07-06T04:37:35.779Z,40.35
2023-07-06T04:38:35.818Z,40.30
2023-07-06T04:39:35.747Z,40.27
2023-07-06T04:40:35.706Z,40.30
2023-07-06T04:41:35.676Z,40.29
2023-07-06T04:42:35.631Z,40.33
2023-07-06T04:43:35.599Z,40.30
2023-07-06T04:44:35.622Z,40.26
2023-07-06T04:45:35.608Z,40.29
2023-07-06T04:46:35.641Z,40.30
2023-07-06T04:47:35.614Z,40.22
2023-07-06T04:48:35.480Z,40.28
2023-07-06T04:49:35.508Z,40.27
2023-07-06T04:50:35.439Z,40.27
2023-07-06T04:51:35.456Z,40.28
2023-07-06T04:52:35.399Z,40.33
2023-07-06T04:53:35.389Z,40.29
2023-07-06T04:54:35.357Z,40.31
2023-07-06T04:55:35.309Z,40.34
2023-07-06T04:56:35.300Z,40.30
2023-07-06T04:57:35.257Z,40.33
2023-07-06T04:58:35.218Z,40.26
2023-07-06T04:59:35.194Z,40.28
2023-07-06T05:00:35.196Z,40.31
2023-07-06T05:01:35.156Z,40.26
2023-07-06T05:02:35.147Z,40.30
2023-07-06T05:03:35.118Z,40.34
2023-07-06T05:04:35.074Z,40.31
2023-07-06T05:05:35.053Z,40.31
2023-07-06T05:06:35.008Z,40.31
2023-07-06T05:07:34.956Z,40.33
2023-07-06T05:08:34.924Z,40.33
2023-07-06T05:09:34.952Z,40.31
2023-07-06T05:10:34.886Z,40.34
2023-07-06T05:11:34.850Z,40.30
2023-07-06T05:12:34.845Z,40.31
2023-07-06T05:13:34.838Z,40.34
2023-07-06T05:14:34.801Z,40.33
2023-07-06T05:15:34.773Z,40.34
2023-07-06T05:16:34.823Z,40.33
2023-07-06T05:17:34.772Z,40.31
2023-07-06T05:18:34.680Z,40.31
2023-07-06T05:19:34.690Z,40.33
2023-07-06T05:20:34.662Z,40.31
2023-07-06T05:21:34.602Z,40.35
2023-07-06T05:22:34.569Z,40.34
2023-07-06T05:23:34.575Z,40.33
2023-07-06T05:24:34.516Z,40.37
2023-07-06T05:25:34.529Z,40.35
2023-07-06T05:26:34.487Z,40.34
2023-07-06T05:27:34.464Z,40.34
2023-07-06T05:28:34.446Z,40.31
2023-07-06T05:29:34.416Z,40.31
2023-07-06T05:30:34.431Z,40.35
2023-07-06T05:31:34.390Z,40.35
2023-07-06T05:32:34.421Z,40.42
2023-07-06T05:33:34.595Z,40.37
2023-07-06T05:34:34.432Z,40.35
2023-07-06T05:35:34.435Z,40.35
2023-07-06T05:36:34.433Z,41.29
2023-07-06T05:37:36.081Z,41.31
2023-07-06T05:38:34.551Z,40.62
2023-07-06T05:39:34.561Z,40.62
2023-07-06T05:40:34.567Z,40.79
2023-07-06T05:41:34.582Z,40.76
2023-07-06T05:42:34.593Z,40.76
2023-07-06T05:43:34.602Z,40.47
2023-07-06T05:44:34.601Z,40.79
2023-07-06T05:45:34.583Z,40.68
2023-07-06T05:46:34.632Z,40.55
2023-07-06T05:47:34.536Z,40.46
2023-07-06T05:48:34.518Z,40.09
2023-07-06T05:49:34.516Z,40.20
2023-07-06T05:50:34.525Z,40.01
2023-07-06T05:51:34.537Z,40.06
2023-07-06T05:52:34.563Z,40.11
2023-07-06T05:53:34.544Z,40.08
2023-07-06T05:54:34.552Z,40.72
2023-07-06T05:55:34.580Z,40.38
2023-07-06T05:56:34.588Z,40.43
2023-07-06T05:57:34.633Z,40.75
2023-07-06T05:58:34.642Z,40.91
2023-07-06T05:59:34.644Z,40.88
2023-07-06T06:00:34.641Z,40.99
2023-07-06T06:01:35.979Z,41.14
2023-07-06T06:02:34.674Z,41.31
2023-07-06T06:03:34.618Z,41.35
2023-07-06T06:04:34.665Z,41.23
2023-07-06T06:05:34.634Z,41.19
2023-07-06T06:06:34.582Z,41.10
2023-07-06T06:07:34.632Z,41.20
2023-07-06T06:08:34.606Z,41.22
2023-07-06T06:09:34.602Z,41.28
2023-07-06T06:10:34.642Z,41.21
2023-07-06T06:11:34.546Z,41.10
2023-07-06T06:12:34.570Z,41.10
2023-07-06T06:13:34.537Z,41.06
2023-07-06T06:14:34.526Z,41.07
2023-07-06T06:15:34.604Z,41.02
2023-07-06T06:16:34.601Z,40.97
2023-07-06T06:17:34.560Z,40.94
2023-07-06T06:18:34.505Z,41.00
2023-07-06T06:19:34.466Z,40.94
2023-07-06T06:20:34.462Z,40.86
2023-07-06T06:21:34.439Z,40.71
2023-07-06T06:22:34.497Z,40.77
2023-07-06T06:23:34.456Z,40.79
2023-07-06T06:24:34.454Z,40.79
2023-07-06T06:25:34.449Z,40.71
2023-07-06T06:26:34.448Z,40.74
2023-07-06T06:27:34.430Z,40.65
2023-07-06T06:28:34.418Z,40.59
2023-07-06T06:29:34.427Z,40.68
2023-07-06T06:30:34.393Z,40.54
2023-07-06T06:31:34.448Z,40.54
2023-07-06T06:32:34.396Z,40.51
2023-07-06T06:33:34.361Z,40.50
2023-07-06T06:34:34.405Z,40.51
2023-07-06T06:35:34.396Z,40.45
2023-07-06T06:36:34.383Z,40.37
2023-07-06T06:37:34.368Z,40.33
2023-07-06T06:38:34.341Z,40.40
2023-07-06T06:39:34.323Z,40.41
2023-07-06T06:40:34.317Z,40.47
2023-07-06T06:41:34.330Z,40.33
2023-07-06T06:42:34.331Z,40.28
2023-07-06T06:43:34.262Z,40.39
2023-07-06T06:44:34.316Z,40.43
2023-07-06T06:45:34.261Z,40.40
2023-07-06T06:46:34.338Z,40.29
2023-07-06T06:47:34.280Z,40.28
2023-07-06T06:48:34.222Z,40.29
2023-07-06T06:49:34.291Z,40.40
2023-07-06T06:50:34.236Z,40.36
2023-07-06T06:51:34.213Z,40.28
2023-07-06T06:52:34.172Z,40.24
2023-07-06T06:53:34.164Z,40.29
2023-07-06T06:54:34.283Z,40.26
2023-07-06T06:55:34.142Z,40.27
2023-07-06T06:56:34.133Z,40.24
2023-07-06T06:57:34.148Z,40.35
2023-07-06T06:58:34.118Z,40.28
2023-07-06T06:59:34.586Z,40.32
2023-07-06T07:00:34.099Z,40.33
2023-07-06T07:01:34.132Z,40.30
2023-07-06T07:02:34.112Z,40.26
2023-07-06T07:03:34.085Z,40.28
2023-07-06T07:04:34.083Z,40.28
2023-07-06T07:05:34.034Z,40.28
2023-07-06T07:06:33.993Z,40.20
2023-07-06T07:07:34.006Z,40.17
2023-07-06T07:08:34.010Z,40.17
2023-07-06T07:09:34.004Z,40.22
2023-07-06T07:10:33.965Z,40.18
2023-07-06T07:11:33.919Z,40.15
2023-07-06T07:12:33.935Z,40.12
2023-07-06T07:13:33.930Z,40.10
2023-07-06T07:14:33.910Z,40.09
2023-07-06T07:15:33.879Z,39.98
2023-07-06T07:16:33.895Z,40.00
2023-07-06T07:17:33.916Z,40.06
2023-07-06T07:18:33.859Z,40.06
2023-07-06T07:19:33.863Z,39.95
2023-07-06T07:20:33.808Z,39.99
2023-07-06T07:21:33.857Z,39.94
2023-07-06T07:22:33.830Z,39.96
2023-07-06T07:23:33.842Z,39.89
2023-07-06T07:24:34.054Z,39.87
2023-07-06T07:25:33.865Z,39.89
2023-07-06T07:26:33.875Z,39.86
2023-07-06T07:27:33.865Z,39.90
2023-07-06T07:28:33.882Z,39.90
2023-07-06T07:29:33.905Z,39.87
2023-07-06T07:30:33.899Z,39.89
2023-07-06T07:31:33.922Z,39.83
2023-07-06T07:32:33.922Z,39.89
2023-07-06T07:33:33.901Z,39.89
2023-07-06T07:34:33.929Z,39.82
2023-07-06T07:35:33.964Z,39.87
2023-07-06T07:36:35.177Z,39.89
2023-07-06T07:37:34.005Z,39.89
2023-07-06T07:38:33.932Z,39.90
2023-07-06T07:39:33.948Z,39.85
2023-07-06T07:40:33.950Z,39.85
2023-07-06T07:41:33.951Z,39.86
2023-07-06T07:42:33.924Z,39.82
2023-07-06T07:43:33.965Z,39.81
2023-07-06T07:44:33.989Z,39.79
2023-07-06T07:45:33.995Z,39.76
2023-07-06T07:46:34.183Z,39.74
2023-07-06T07:47:33.985Z,39.69
2023-07-06T07:48:34.028Z,39.69
2023-07-06T07:49:33.978Z,39.71
2023-07-06T07:50:33.991Z,39.67
2023-07-06T07:51:34.030Z,39.67
2023-07-06T07:52:34.016Z,39.64
2023-07-06T07:53:34.026Z,39.62
2023-07-06T07:54:34.050Z,39.58
2023-07-06T07:55:34.027Z,39.54
2023-07-06T07:56:34.085Z,39.50
2023-07-06T07:57:34.066Z,39.56
2023-07-06T07:58:34.153Z,39.54
2023-07-06T07:59:34.085Z,39.38
2023-07-06T08:00:34.093Z,39.33
2023-07-06T08:01:34.129Z,39.26
2023-07-06T08:02:34.174Z,39.25
2023-07-06T08:03:34.227Z,39.26
2023-07-06T08:04:34.207Z,39.16
2023-07-06T08:05:34.153Z,39.27
2023-07-06T08:06:34.201Z,39.27
2023-07-06T08:07:34.218Z,39.34
2023-07-06T08:08:34.213Z,39.43
2023-07-06T08:09:34.226Z,39.42
2023-07-06T08:10:34.269Z,39.27
2023-07-06T08:11:34.281Z,39.22
2023-07-06T08:12:35.144Z,39.25
2023-07-06T08:13:34.387Z,39.26
2023-07-06T08:14:34.297Z,39.33
2023-07-06T08:15:34.332Z,39.26
2023-07-06T08:16:34.437Z,39.31
2023-07-06T08:17:34.374Z,39.27
2023-07-06T08:18:34.389Z,39.30
2023-07-06T08:19:50.001Z,39.33
2023-07-06T08:21:22.461Z,39.33
2023-07-06T08:21:40.311Z,39.29
2023-07-06T08:22:35.293Z,39.33
2023-07-06T08:23:34.241Z,39.36
2023-07-06T08:24:34.243Z,39.34
2023-07-06T08:25:34.208Z,39.35
2023-07-06T08:26:34.181Z,39.35
2023-07-06T08:27:34.165Z,39.30
2023-07-06T08:28:34.150Z,39.27
2023-07-06T08:29:34.131Z,39.27
2023-07-06T08:30:34.097Z,39.25
2023-07-06T08:31:34.157Z,39.20
2023-07-06T08:32:34.107Z,39.24
2023-07-06T08:33:34.029Z,39.21
2023-07-06T08:34:34.047Z,39.18
2023-07-06T08:35:34.007Z,39.11
2023-07-06T08:36:33.965Z,39.09
2023-07-06T08:37:33.934Z,39.06
2023-07-06T08:38:33.968Z,39.06
2023-07-06T08:39:33.905Z,39.09
2023-07-06T08:40:33.913Z,39.03
2023-07-06T08:41:33.884Z,39.07
2023-07-06T08:42:33.850Z,39.00
2023-07-06T08:43:33.826Z,38.98
2023-07-06T08:44:33.798Z,38.98
2023-07-06T08:45:33.740Z,38.98
2023-07-06T08:46:33.793Z,39.00
2023-07-06T08:47:33.717Z,39.00
2023-07-06T08:48:33.666Z,39.00
2023-07-06T08:49:33.715Z,39.00
2023-07-06T08:50:33.607Z,38.98
2023-07-06T08:51:33.603Z,38.99
2023-07-06T08:52:33.563Z,38.99
2023-07-06T08:53:33.549Z,38.96
2023-07-06T08:54:33.543Z,39.01
2023-07-06T08:55:33.487Z,38.96
2023-07-06T08:56:33.504Z,38.95
2023-07-06T08:57:33.454Z,38.93
2023-07-06T08:58:33.416Z,38.82
2023-07-06T08:59:33.465Z,38.84
2023-07-06T09:00:33.439Z,38.84
2023-07-06T09:01:33.420Z,38.68
2023-07-06T09:02:33.331Z,38.63
2023-07-06T09:03:33.333Z,38.49
2023-07-06T09:04:33.258Z,38.51
2023-07-06T09:05:33.237Z,38.48
2023-07-06T09:06:33.225Z,38.49
2023-07-06T09:07:33.181Z,38.54
2023-07-06T09:08:33.217Z,38.44
2023-07-06T09:09:33.142Z,38.62
2023-07-06T09:10:33.114Z,38.63
2023-07-06T09:11:33.122Z,38.60
2023-07-06T09:12:33.019Z,38.62
2023-07-06T09:13:33.035Z,38.68
2023-07-06T09:14:33.003Z,38.65
2023-07-06T09:16:33.381Z,38.64
2023-07-06T09:17:32.971Z,38.62
2023-07-06T09:18:32.899Z,38.64
2023-07-06T09:19:32.871Z,38.59
2023-07-06T09:20:32.850Z,38.49
2023-07-06T09:21:32.807Z,38.45
2023-07-06T09:22:32.779Z,38.45
2023-07-06T09:23:32.783Z,38.55
2023-07-06T09:24:32.728Z,38.74
2023-07-06T09:25:32.757Z,38.96
2023-07-06T09:26:34.097Z,38.86
2023-07-06T09:27:32.726Z,38.78
2023-07-06T09:28:32.644Z,38.97
2023-07-06T09:29:32.643Z,39.08
2023-07-06T09:30:32.751Z,39.01
2023-07-06T09:31:32.710Z,39.04
2023-07-06T09:32:32.790Z,38.92
2023-07-06T09:33:33.175Z,38.85
2023-07-06T09:34:32.856Z,38.97
2023-07-06T09:35:32.872Z,38.97
2023-07-06T09:36:32.922Z,38.96
2023-07-06T09:37:32.944Z,38.71
2023-07-06T09:38:32.977Z,38.74
2023-07-06T09:39:33.048Z,38.88
2023-07-06T09:40:34.128Z,38.84
2023-07-06T09:41:33.102Z,38.92
2023-07-06T09:42:33.187Z,39.09
2023-07-06T09:43:33.270Z,39.15
2023-07-06T09:44:33.239Z,39.09
2023-07-06T09:45:33.317Z,39.10
2023-07-06T09:46:33.476Z,39.11
2023-07-06T09:47:33.435Z,39.06
2023-07-06T09:48:33.456Z,39.08
2023-07-06T09:49:33.443Z,39.03
2023-07-06T09:50:33.464Z,39.08
2023-07-06T09:51:33.551Z,39.06
2023-07-06T09:52:33.548Z,39.00
2023-07-06T09:53:33.566Z,38.98
2023-07-06T09:54:33.589Z,38.88
2023-07-06T09:55:33.623Z,38.87
2023-07-06T09:56:33.669Z,38.76
2023-07-06T09:57:33.683Z,38.83
2023-07-06T09:58:33.736Z,38.84
2023-07-06T09:59:33.760Z,38.83
2023-07-06T10:00:33.803Z,38.78
2023-07-06T10:01:33.965Z,38.80
2023-07-06T10:02:33.883Z,38.79
2023-07-06T10:03:33.880Z,38.75
2023-07-06T10:04:33.985Z,38.76
2023-07-06T10:05:34.309Z,38.70
2023-07-06T10:06:34.010Z,38.71
2023-07-06T10:07:34.068Z,38.73
2023-07-06T10:08:34.112Z,38.73
2023-07-06T10:09:34.167Z,38.67
2023-07-06T10:10:34.202Z,38.78
2023-07-06T10:11:34.202Z,38.77
2023-07-06T10:12:34.257Z,38.72
2023-07-06T10:13:34.361Z,38.72
2023-07-06T10:14:34.351Z,38.65
2023-07-06T10:15:34.358Z,38.73
2023-07-06T10:16:34.436Z,38.74
2023-07-06T10:17:34.459Z,38.71
2023-07-06T10:18:34.496Z,38.69
2023-07-06T10:19:34.561Z,38.70
2023-07-06T10:20:34.601Z,38.71
2023-07-06T10:21:34.621Z,38.71
2023-07-06T10:22:34.612Z,38.72
2023-07-06T10:23:34.657Z,38.69
2023-07-06T10:24:34.682Z,38.68
2023-07-06T10:25:34.823Z,38.73
2023-07-06T10:26:34.755Z,38.69
2023-07-06T10:27:34.807Z,38.72
2023-07-06T10:28:34.897Z,38.71
2023-07-06T10:29:34.858Z,38.71
2023-07-06T10:30:34.926Z,38.71
2023-07-06T10:31:34.984Z,38.75
2023-07-06T10:32:34.996Z,38.71
2023-07-06T10:33:35.017Z,38.68
2023-07-06T10:34:35.060Z,38.71
2023-07-06T10:35:35.094Z,38.63
2023-07-06T10:36:35.115Z,38.65
2023-07-06T10:37:35.137Z,38.64
2023-07-06T10:38:35.178Z,38.64
2023-07-06T10:39:35.195Z,38.64
2023-07-06T10:40:35.226Z,38.67
2023-07-06T10:41:35.297Z,38.63
2023-07-06T10:42:35.302Z,38.62
2023-07-06T10:43:35.331Z,38.62
2023-07-06T10:44:35.343Z,38.64
2023-07-06T10:45:35.335Z,38.58
2023-07-06T10:46:35.565Z,38.57
2023-07-06T10:47:35.421Z,38.58
2023-07-06T10:48:35.722Z,38.62
2023-07-06T10:49:35.441Z,38.60
2023-07-06T10:50:35.450Z,38.57
2023-07-06T10:51:35.432Z,38.56
2023-07-06T10:52:35.465Z,38.61
2023-07-06T10:53:35.485Z,38.56
2023-07-06T10:54:35.517Z,38.60
2023-07-06T10:55:35.518Z,38.62
2023-07-06T10:56:35.517Z,38.55
2023-07-06T10:57:35.503Z,38.59
2023-07-06T10:58:35.548Z,38.58
2023-07-06T10:59:35.544Z,38.53
2023-07-06T11:00:35.574Z,38.56
2023-07-06T11:01:35.568Z,38.56
2023-07-06T11:02:35.662Z,38.53
2023-07-06T11:03:35.576Z,38.52
2023-07-06T11:04:35.580Z,38.56
2023-07-06T11:05:37.538Z,38.51
2023-07-06T11:06:35.736Z,38.54
2023-07-06T11:07:36.592Z,38.51
2023-07-06T11:08:35.528Z,38.50
2023-07-06T11:09:35.510Z,38.50
2023-07-06T11:10:35.485Z,38.50
2023-07-06T11:11:35.469Z,38.53
2023-07-06T11:12:35.387Z,38.54
2023-07-06T11:13:35.409Z,38.49
2023-07-06T11:14:35.353Z,38.45
2023-07-06T11:15:35.344Z,38.50
2023-07-06T11:16:35.307Z,38.49
2023-07-06T11:17:35.286Z,38.45
2023-07-06T11:18:35.219Z,38.46
2023-07-06T11:19:35.238Z,38.42
2023-07-06T11:20:35.235Z,38.45
2023-07-06T11:21:35.238Z,38.49
2023-07-06T11:22:35.303Z,38.44
2023-07-06T11:23:35.289Z,38.43
2023-07-06T11:24:35.261Z,38.44
2023-07-06T11:25:35.286Z,38.45
2023-07-06T11:26:35.277Z,38.43
2023-07-06T11:27:35.295Z,38.46
2023-07-06T11:28:35.311Z,38.44
2023-07-06T11:29:35.320Z,38.44
2023-07-06T11:30:35.335Z,38.42
2023-07-06T11:31:35.394Z,38.39
2023-07-06T11:32:35.393Z,38.41
2023-07-06T11:33:35.366Z,38.40
2023-07-06T11:34:38.122Z,38.36
2023-07-06T11:35:35.385Z,38.38
2023-07-06T11:36:35.366Z,38.39
2023-07-06T11:37:45.368Z,38.38
2023-07-06T11:38:36.328Z,38.36
2023-07-06T11:39:35.302Z,38.33
2023-07-06T11:40:35.323Z,38.33
2023-07-06T11:41:35.263Z,38.32
2023-07-06T11:42:35.232Z,38.30
2023-07-06T11:43:35.220Z,38.32
2023-07-06T11:44:35.202Z,38.30
2023-07-06T11:45:35.181Z,38.33
2023-07-06T11:46:35.217Z,38.35
2023-07-06T11:47:35.240Z,38.30
2023-07-06T11:48:35.131Z,38.33
2023-07-06T11:49:35.098Z,38.32
2023-07-06T11:50:35.084Z,38.32
2023-07-06T11:51:35.045Z,38.27
2023-07-06T11:52:35.048Z,38.30
2023-07-06T11:53:35.052Z,38.29
2023-07-06T11:54:35.005Z,38.29
2023-07-06T11:55:34.979Z,38.29
2023-07-06T11:56:34.967Z,38.31
2023-07-06T11:57:34.964Z,38.25
2023-07-06T11:58:34.980Z,38.22
2023-07-06T11:59:34.906Z,38.24
2023-07-06T12:00:34.892Z,38.24
2023-07-06T12:01:34.909Z,38.23
2023-07-06T12:02:34.900Z,38.20
2023-07-06T12:03:34.915Z,38.19
2023-07-06T12:04:34.826Z,38.17
2023-07-06T12:05:34.896Z,38.16
2023-07-06T12:06:34.776Z,38.17
2023-07-06T12:07:34.751Z,38.20
2023-07-06T12:08:34.782Z,38.16
2023-07-06T12:09:34.728Z,38.12
2023-07-06T12:10:34.757Z,38.11
2023-07-06T12:11:34.746Z,38.11
2023-07-06T12:12:34.755Z,38.12
2023-07-06T12:13:34.767Z,38.14
2023-07-06T12:14:34.745Z,38.15
2023-07-06T12:15:34.810Z,38.13
2023-07-06T12:16:34.891Z,38.07
2023-07-06T12:17:34.726Z,38.07
2023-07-06T12:18:34.725Z,37.63
2023-07-06T12:19:34.696Z,37.19
2023-07-06T12:20:34.700Z,37.81
2023-07-06T12:21:34.747Z,37.92
2023-07-06T12:22:34.680Z,37.94
2023-07-06T12:23:34.700Z,37.87
2023-07-06T12:24:34.686Z,37.82
2023-07-06T12:25:34.705Z,37.85
2023-07-06T12:26:34.664Z,37.79
2023-07-06T12:27:34.695Z,37.80
2023-07-06T12:28:34.729Z,37.76
2023-07-06T12:29:34.671Z,37.82
2023-07-06T12:30:34.689Z,37.86
2023-07-06T12:31:34.757Z,37.75
2023-07-06T12:32:36.680Z,37.80
2023-07-06T12:33:34.656Z,37.70
2023-07-06T12:34:34.685Z,37.64
2023-07-06T12:35:34.659Z,37.71
2023-07-06T12:36:34.663Z,37.68
2023-07-06T12:37:34.607Z,37.65
2023-07-06T12:38:34.639Z,37.63
2023-07-06T12:39:34.593Z,37.66
2023-07-06T12:40:34.599Z,37.58
2023-07-06T12:41:34.615Z,37.60
2023-07-06T12:42:34.576Z,37.53
2023-07-06T12:43:34.582Z,37.54
2023-07-06T12:44:34.571Z,37.53
2023-07-06T12:45:34.637Z,37.54
2023-07-06T12:46:34.634Z,37.54
2023-07-06T12:47:34.563Z,37.53
2023-07-06T12:48:34.547Z,37.54
2023-07-06T12:49:34.532Z,37.50
2023-07-06T12:50:34.528Z,37.49
2023-07-06T12:51:34.511Z,37.48
2023-07-06T12:52:34.513Z,37.46
2023-07-06T12:53:34.534Z,37.45
2023-07-06T12:54:34.500Z,37.43